Pagrindinis puslapis
METAR-TAF:

METAR-TAF

Oro uostai :

Tabas, Iranas

platuma: 33-36N, ilguma: 056-55E, Aukštis: 710 m

Dabartinis oras

Ataskaita buvo paskelbta 44 minutes, ne 04:00 UTC
Vėjas 4 kt iš Rytų
Temperatūra 9°C
Drėgmė 13%
Slėgis 1022 hPa

METAR: OIMT 130400Z AUTO 08004KT //// // ////// 09/M18 Q1022

Laikas: 08:14 (04:44 UTC)


TAF: trūkstamas

Orai ataskaitas ir orų prognozės (METAR, TAF).

turimą stotys yra geltonos ir raudonos taškus žemėlapyje.

Perkelti pele per norėdami pamatyti stoties vardą.

Tada spustelėkite, norėdami matyti oro stebėjimo ir prognozės.

Norėdami pakeisti žemėlapį: spustelėkite ant žalios mygtukų su juodo kryžiaus žemyn,; žalią mygtuką su brūkšneliu, jei norite nutolinti; arba žalių rodyklių gretimoms žemėlapius.


METAR-TAF: